sensor_id;sensor_type;location;lat;lon;timestamp;P1;durP1;ratioP1;P2;durP2;ratioP2
44434;SDS011;30138;20.964;105.830;2023-02-10T00:02:51;65.72;;;36.97;;
44434;SDS011;30138;20.964;105.830;2023-02-10T00:08:02;66.38;;;37.38;;
44434;SDS011;30138;20.964;105.830;2023-02-10T00:13:12;68.78;;;38.95;;
44434;SDS011;30138;20.964;105.830;2023-02-10T00:18:29;63.88;;;36.85;;
44434;SDS011;30138;20.964;105.830;2023-02-10T00:23:38;61.28;;;36.92;;
44434;SDS011;30138;20.964;105.830;2023-02-10T00:28:45;66.97;;;37.25;;
44434;SDS011;30138;20.964;105.830;2023-02-10T00:33:58;65.88;;;37.20;;
44434;SDS011;30138;20.964;105.830;2023-02-10T00:39:06;63.00;;;37.35;;
44434;SDS011;30138;20.964;105.830;2023-02-10T00:44:17;63.53;;;36.72;;
44434;SDS011;30138;20.964;105.830;2023-02-10T00:49:25;63.03;;;36.40;;
44434;SDS011;30138;20.964;105.830;2023-02-10T00:54:35;66.82;;;36.20;;
44434;SDS011;30138;20.964;105.830;2023-02-10T00:59:43;65.50;;;36.25;;
44434;SDS011;30138;20.964;105.830;2023-02-10T01:04:50;63.38;;;37.47;;
44434;SDS011;30138;20.964;105.830;2023-02-10T01:10:03;73.78;;;38.63;;
44434;SDS011;30138;20.964;105.830;2023-02-10T01:15:10;68.20;;;38.78;;
44434;SDS011;30138;20.964;105.830;2023-02-10T01:20:17;69.72;;;37.67;;
44434;SDS011;30138;20.964;105.830;2023-02-10T01:25:27;68.07;;;37.80;;
44434;SDS011;30138;20.964;105.830;2023-02-10T01:30:33;86.97;;;37.83;;
44434;SDS011;30138;20.964;105.830;2023-02-10T01:35:41;78.97;;;38.15;;
44434;SDS011;30138;20.964;105.830;2023-02-10T01:40:50;81.45;;;38.50;;
44434;SDS011;30138;20.964;105.830;2023-02-10T01:45:57;90.13;;;40.22;;
44434;SDS011;30138;20.964;105.830;2023-02-10T01:51:05;89.50;;;41.88;;
44434;SDS011;30138;20.964;105.830;2023-02-10T01:56:15;97.50;;;42.33;;
44434;SDS011;30138;20.964;105.830;2023-02-10T02:01:23;97.22;;;46.40;;
44434;SDS011;30138;20.964;105.830;2023-02-10T02:06:30;95.88;;;45.70;;
44434;SDS011;30138;20.964;105.830;2023-02-10T02:11:43;104.00;;;46.50;;
44434;SDS011;30138;20.964;105.830;2023-02-10T02:16:59;93.43;;;45.90;;
44434;SDS011;30138;20.964;105.830;2023-02-10T02:22:27;106.00;;;47.00;;
44434;SDS011;30138;20.964;105.830;2023-02-10T02:28:02;108.45;;;47.78;;
44434;SDS011;30138;20.964;105.830;2023-02-10T02:33:35;104.07;;;48.63;;
44434;SDS011;30138;20.964;105.830;2023-02-10T02:38:46;101.75;;;49.08;;
44434;SDS011;30138;20.964;105.830;2023-02-10T02:43:55;97.60;;;47.17;;
44434;SDS011;30138;20.964;105.830;2023-02-10T02:49:12;121.65;;;47.13;;
44434;SDS011;30138;20.964;105.830;2023-02-10T02:54:30;108.28;;;47.15;;
44434;SDS011;30138;20.964;105.830;2023-02-10T02:59:49;96.45;;;46.92;;
44434;SDS011;30138;20.964;105.830;2023-02-10T03:05:04;98.45;;;47.63;;
44434;SDS011;30138;20.964;105.830;2023-02-10T03:10:12;94.88;;;44.53;;
44434;SDS011;30138;20.964;105.830;2023-02-10T03:15:23;100.13;;;48.22;;
44434;SDS011;30138;20.964;105.830;2023-02-10T03:20:38;97.10;;;46.65;;
44434;SDS011;30138;20.964;105.830;2023-02-10T03:25:46;97.18;;;47.70;;
44434;SDS011;30138;20.964;105.830;2023-02-10T03:30:55;100.63;;;47.17;;
44434;SDS011;30138;20.964;105.830;2023-02-10T03:36:05;104.78;;;44.90;;
44434;SDS011;30138;20.964;105.830;2023-02-10T03:41:14;101.25;;;49.22;;
44434;SDS011;30138;20.964;105.830;2023-02-10T03:46:22;98.47;;;48.80;;
44434;SDS011;30138;20.964;105.830;2023-02-10T03:51:36;101.57;;;49.47;;
44434;SDS011;30138;20.964;105.830;2023-02-10T03:56:46;101.07;;;48.92;;
44434;SDS011;30138;20.964;105.830;2023-02-10T04:01:54;101.93;;;50.00;;
44434;SDS011;30138;20.964;105.830;2023-02-10T04:07:07;99.57;;;50.65;;
44434;SDS011;30138;20.964;105.830;2023-02-10T04:12:16;95.95;;;48.35;;
44434;SDS011;30138;20.964;105.830;2023-02-10T04:17:29;97.30;;;52.33;;
44434;SDS011;30138;20.964;105.830;2023-02-10T04:22:40;102.05;;;52.78;;
44434;SDS011;30138;20.964;105.830;2023-02-10T04:27:54;104.15;;;53.53;;
44434;SDS011;30138;20.964;105.830;2023-02-10T04:33:16;102.60;;;55.80;;
44434;SDS011;30138;20.964;105.830;2023-02-10T04:38:36;99.22;;;52.35;;
44434;SDS011;30138;20.964;105.830;2023-02-10T04:43:50;105.22;;;56.05;;
44434;SDS011;30138;20.964;105.830;2023-02-10T04:49:02;102.32;;;54.10;;
44434;SDS011;30138;20.964;105.830;2023-02-10T04:54:23;107.07;;;55.80;;
44434;SDS011;30138;20.964;105.830;2023-02-10T04:59:33;114.38;;;58.22;;
44434;SDS011;30138;20.964;105.830;2023-02-10T05:04:49;111.15;;;58.03;;
44434;SDS011;30138;20.964;105.830;2023-02-10T05:10:01;108.22;;;58.33;;
44434;SDS011;30138;20.964;105.830;2023-02-10T05:15:21;109.85;;;57.65;;
44434;SDS011;30138;20.964;105.830;2023-02-10T05:20:40;107.38;;;57.58;;
44434;SDS011;30138;20.964;105.830;2023-02-10T05:26:14;113.35;;;57.90;;
44434;SDS011;30138;20.964;105.830;2023-02-10T05:31:32;110.65;;;58.55;;
44434;SDS011;30138;20.964;105.830;2023-02-10T05:36:52;114.05;;;60.03;;
44434;SDS011;30138;20.964;105.830;2023-02-10T05:42:08;112.47;;;61.53;;
44434;SDS011;30138;20.964;105.830;2023-02-10T05:47:33;114.03;;;60.33;;
44434;SDS011;30138;20.964;105.830;2023-02-10T05:52:52;121.38;;;62.70;;
44434;SDS011;30138;20.964;105.830;2023-02-10T05:58:20;113.30;;;61.55;;
44434;SDS011;30138;20.964;105.830;2023-02-10T06:03:34;114.55;;;61.35;;
44434;SDS011;30138;20.964;105.830;2023-02-10T06:08:56;114.78;;;61.67;;
44434;SDS011;30138;20.964;105.830;2023-02-10T06:14:24;110.03;;;60.85;;
44434;SDS011;30138;20.964;105.830;2023-02-10T06:19:50;117.80;;;60.15;;
44434;SDS011;30138;20.964;105.830;2023-02-10T06:25:08;113.60;;;61.30;;
44434;SDS011;30138;20.964;105.830;2023-02-10T06:30:30;118.30;;;61.97;;
44434;SDS011;30138;20.964;105.830;2023-02-10T06:35:45;109.67;;;59.80;;
44434;SDS011;30138;20.964;105.830;2023-02-10T06:41:00;103.78;;;57.67;;
44434;SDS011;30138;20.964;105.830;2023-02-10T06:46:14;113.32;;;59.20;;
44434;SDS011;30138;20.964;105.830;2023-02-10T06:51:23;106.57;;;57.58;;
44434;SDS011;30138;20.964;105.830;2023-02-10T06:56:42;116.88;;;58.97;;
44434;SDS011;30138;20.964;105.830;2023-02-10T07:02:05;109.03;;;60.00;;
44434;SDS011;30138;20.964;105.830;2023-02-10T07:07:17;103.47;;;57.90;;
44434;SDS011;30138;20.964;105.830;2023-02-10T07:12:26;108.40;;;57.38;;
44434;SDS011;30138;20.964;105.830;2023-02-10T07:17:40;108.60;;;58.13;;
44434;SDS011;30138;20.964;105.830;2023-02-10T07:22:51;105.30;;;56.75;;
44434;SDS011;30138;20.964;105.830;2023-02-10T07:28:10;101.28;;;56.25;;
44434;SDS011;30138;20.964;105.830;2023-02-10T07:33:27;110.25;;;56.65;;
44434;SDS011;30138;20.964;105.830;2023-02-10T07:38:46;106.88;;;56.92;;
44434;SDS011;30138;20.964;105.830;2023-02-10T07:44:00;101.90;;;54.97;;
44434;SDS011;30138;20.964;105.830;2023-02-10T07:49:10;99.10;;;56.20;;
44434;SDS011;30138;20.964;105.830;2023-02-10T07:54:22;104.25;;;56.88;;
44434;SDS011;30138;20.964;105.830;2023-02-10T07:59:36;101.55;;;56.03;;
44434;SDS011;30138;20.964;105.830;2023-02-10T08:04:48;102.87;;;55.60;;
44434;SDS011;30138;20.964;105.830;2023-02-10T08:10:04;109.00;;;54.42;;
44434;SDS011;30138;20.964;105.830;2023-02-10T08:15:16;101.50;;;53.58;;
44434;SDS011;30138;20.964;105.830;2023-02-10T08:20:32;103.43;;;53.60;;
44434;SDS011;30138;20.964;105.830;2023-02-10T08:25:45;98.93;;;53.70;;
44434;SDS011;30138;20.964;105.830;2023-02-10T08:30:53;108.32;;;54.47;;
44434;SDS011;30138;20.964;105.830;2023-02-10T08:36:06;110.47;;;54.67;;
44434;SDS011;30138;20.964;105.830;2023-02-10T08:41:16;99.28;;;54.60;;
44434;SDS011;30138;20.964;105.830;2023-02-10T08:46:25;94.63;;;54.30;;
44434;SDS011;30138;20.964;105.830;2023-02-10T08:51:36;91.93;;;54.67;;
44434;SDS011;30138;20.964;105.830;2023-02-10T08:56:46;108.88;;;53.78;;
44434;SDS011;30138;20.964;105.830;2023-02-10T09:01:59;104.55;;;54.92;;
44434;SDS011;30138;20.964;105.830;2023-02-10T09:07:08;101.97;;;54.78;;
44434;SDS011;30138;20.964;105.830;2023-02-10T09:12:15;105.03;;;56.75;;
44434;SDS011;30138;20.964;105.830;2023-02-10T09:17:24;106.35;;;55.92;;
44434;SDS011;30138;20.964;105.830;2023-02-10T09:22:33;108.03;;;57.70;;
44434;SDS011;30138;20.964;105.830;2023-02-10T09:27:41;109.13;;;59.83;;
44434;SDS011;30138;20.964;105.830;2023-02-10T09:32:48;111.75;;;59.35;;
44434;SDS011;30138;20.964;105.830;2023-02-10T09:37:57;110.35;;;56.67;;
44434;SDS011;30138;20.964;105.830;2023-02-10T09:43:11;113.15;;;59.78;;
44434;SDS011;30138;20.964;105.830;2023-02-10T09:48:31;99.20;;;57.22;;
44434;SDS011;30138;20.964;105.830;2023-02-10T09:53:51;113.95;;;59.45;;
44434;SDS011;30138;20.964;105.830;2023-02-10T09:59:02;103.80;;;57.70;;
44434;SDS011;30138;20.964;105.830;2023-02-10T10:04:16;107.82;;;56.22;;
44434;SDS011;30138;20.964;105.830;2023-02-10T10:09:32;104.10;;;56.47;;
44434;SDS011;30138;20.964;105.830;2023-02-10T10:14:51;102.22;;;56.90;;
44434;SDS011;30138;20.964;105.830;2023-02-10T10:20:04;101.65;;;55.35;;
44434;SDS011;30138;20.964;105.830;2023-02-10T10:25:52;98.88;;;55.85;;
44434;SDS011;30138;20.964;105.830;2023-02-10T10:31:30;97.65;;;55.40;;
44434;SDS011;30138;20.964;105.830;2023-02-10T10:36:42;98.70;;;54.53;;
44434;SDS011;30138;20.964;105.830;2023-02-10T10:47:38;92.25;;;54.92;;
44434;SDS011;30138;20.964;105.830;2023-02-10T10:53:03;91.53;;;54.60;;
44434;SDS011;30138;20.964;105.830;2023-02-10T10:58:26;88.47;;;52.67;;
44434;SDS011;30138;20.964;105.830;2023-02-10T11:03:39;88.30;;;51.75;;
44434;SDS011;30138;20.964;105.830;2023-02-10T11:08:54;89.18;;;53.40;;
44434;SDS011;30138;20.964;105.830;2023-02-10T11:14:15;88.55;;;52.33;;
44434;SDS011;30138;20.964;105.830;2023-02-10T11:19:33;83.22;;;51.42;;
44434;SDS011;30138;20.964;105.830;2023-02-10T11:24:48;91.28;;;53.45;;
44434;SDS011;30138;20.964;105.830;2023-02-10T11:30:23;88.78;;;53.05;;
44434;SDS011;30138;20.964;105.830;2023-02-10T11:35:46;78.57;;;48.92;;
44434;SDS011;30138;20.964;105.830;2023-02-10T11:41:04;78.30;;;48.00;;
44434;SDS011;30138;20.964;105.830;2023-02-10T11:46:24;73.63;;;46.80;;
44434;SDS011;30138;20.964;105.830;2023-02-10T11:51:35;72.63;;;45.78;;
44434;SDS011;30138;20.964;105.830;2023-02-10T11:57:09;68.40;;;43.03;;
44434;SDS011;30138;20.964;105.830;2023-02-10T12:09:00;59.58;;;38.13;;
44434;SDS011;30138;20.964;105.830;2023-02-10T12:14:31;53.83;;;37.73;;
44434;SDS011;30138;20.964;105.830;2023-02-10T12:25:45;55.35;;;36.78;;
44434;SDS011;30138;20.964;105.830;2023-02-10T12:31:04;50.92;;;36.40;;
44434;SDS011;30138;20.964;105.830;2023-02-10T12:36:34;53.88;;;37.13;;
44434;SDS011;30138;20.964;105.830;2023-02-10T12:42:02;57.28;;;37.75;;
44434;SDS011;30138;20.964;105.830;2023-02-10T12:47:55;52.03;;;35.92;;
44434;SDS011;30138;20.964;105.830;2023-02-10T12:53:35;57.78;;;37.92;;
44434;SDS011;30138;20.964;105.830;2023-02-10T12:59:08;55.63;;;37.80;;
44434;SDS011;30138;20.964;105.830;2023-02-10T13:04:35;56.70;;;37.45;;
44434;SDS011;30138;20.964;105.830;2023-02-10T13:10:16;56.78;;;38.20;;
44434;SDS011;30138;20.964;105.830;2023-02-10T13:16:13;54.55;;;37.85;;
44434;SDS011;30138;20.964;105.830;2023-02-10T13:21:49;49.50;;;36.88;;
44434;SDS011;30138;20.964;105.830;2023-02-10T13:27:19;53.90;;;37.42;;
44434;SDS011;30138;20.964;105.830;2023-02-10T13:38:58;54.55;;;38.00;;
44434;SDS011;30138;20.964;105.830;2023-02-10T13:50:19;56.95;;;37.15;;
44434;SDS011;30138;20.964;105.830;2023-02-10T13:55:40;53.80;;;35.67;;
44434;SDS011;30138;20.964;105.830;2023-02-10T14:00:50;54.72;;;35.60;;
44434;SDS011;30138;20.964;105.830;2023-02-10T14:06:00;57.45;;;37.17;;
44434;SDS011;30138;20.964;105.830;2023-02-10T14:11:25;54.83;;;36.33;;
44434;SDS011;30138;20.964;105.830;2023-02-10T14:16:39;52.92;;;36.35;;
44434;SDS011;30138;20.964;105.830;2023-02-10T14:21:49;53.38;;;36.40;;
44434;SDS011;30138;20.964;105.830;2023-02-10T14:26:57;72.78;;;36.70;;
44434;SDS011;30138;20.964;105.830;2023-02-10T14:32:07;56.70;;;35.90;;
44434;SDS011;30138;20.964;105.830;2023-02-10T14:37:20;56.40;;;37.55;;
44434;SDS011;30138;20.964;105.830;2023-02-10T14:42:29;72.85;;;37.95;;
44434;SDS011;30138;20.964;105.830;2023-02-10T14:52:49;58.95;;;37.35;;
44434;SDS011;30138;20.964;105.830;2023-02-10T14:57:56;61.50;;;38.08;;
44434;SDS011;30138;20.964;105.830;2023-02-10T15:03:09;63.58;;;38.20;;
44434;SDS011;30138;20.964;105.830;2023-02-10T15:08:20;58.40;;;37.60;;
44434;SDS011;30138;20.964;105.830;2023-02-10T15:13:31;57.20;;;38.42;;
44434;SDS011;30138;20.964;105.830;2023-02-10T15:18:43;55.45;;;38.00;;
44434;SDS011;30138;20.964;105.830;2023-02-10T15:23:55;60.80;;;38.95;;
44434;SDS011;30138;20.964;105.830;2023-02-10T15:29:03;61.17;;;39.00;;
44434;SDS011;30138;20.964;105.830;2023-02-10T15:34:33;59.17;;;39.22;;
44434;SDS011;30138;20.964;105.830;2023-02-10T15:39:41;62.05;;;38.67;;
44434;SDS011;30138;20.964;105.830;2023-02-10T15:45:00;60.17;;;39.13;;
44434;SDS011;30138;20.964;105.830;2023-02-10T15:50:14;58.67;;;38.67;;
44434;SDS011;30138;20.964;105.830;2023-02-10T15:55:24;61.83;;;40.08;;
44434;SDS011;30138;20.964;105.830;2023-02-10T16:00:35;60.15;;;39.25;;
44434;SDS011;30138;20.964;105.830;2023-02-10T16:05:43;61.58;;;39.78;;
44434;SDS011;30138;20.964;105.830;2023-02-10T16:10:51;61.78;;;40.20;;
44434;SDS011;30138;20.964;105.830;2023-02-10T16:16:00;56.80;;;38.53;;
44434;SDS011;30138;20.964;105.830;2023-02-10T16:21:11;61.47;;;40.90;;
44434;SDS011;30138;20.964;105.830;2023-02-10T16:26:21;57.15;;;39.10;;
44434;SDS011;30138;20.964;105.830;2023-02-10T16:32:09;60.42;;;39.30;;
44434;SDS011;30138;20.964;105.830;2023-02-10T16:37:31;61.20;;;40.85;;
44434;SDS011;30138;20.964;105.830;2023-02-10T16:42:39;60.95;;;40.70;;
44434;SDS011;30138;20.964;105.830;2023-02-10T16:47:47;59.92;;;40.85;;
44434;SDS011;30138;20.964;105.830;2023-02-10T16:52:55;60.38;;;40.08;;
44434;SDS011;30138;20.964;105.830;2023-02-10T16:58:17;62.63;;;40.43;;
44434;SDS011;30138;20.964;105.830;2023-02-10T17:03:24;60.95;;;41.00;;
44434;SDS011;30138;20.964;105.830;2023-02-10T17:08:31;60.08;;;40.92;;
44434;SDS011;30138;20.964;105.830;2023-02-10T17:13:40;59.10;;;38.88;;
44434;SDS011;30138;20.964;105.830;2023-02-10T17:18:46;64.45;;;42.17;;
44434;SDS011;30138;20.964;105.830;2023-02-10T17:23:54;62.85;;;40.90;;
44434;SDS011;30138;20.964;105.830;2023-02-10T17:29:02;60.30;;;40.30;;
44434;SDS011;30138;20.964;105.830;2023-02-10T17:34:08;59.92;;;40.03;;
44434;SDS011;30138;20.964;105.830;2023-02-10T17:39:16;63.03;;;41.30;;
44434;SDS011;30138;20.964;105.830;2023-02-10T17:44:37;65.50;;;42.20;;
44434;SDS011;30138;20.964;105.830;2023-02-10T17:49:43;68.43;;;42.10;;
44434;SDS011;30138;20.964;105.830;2023-02-10T17:54:50;69.57;;;42.63;;
44434;SDS011;30138;20.964;105.830;2023-02-10T17:59:58;66.72;;;43.75;;
44434;SDS011;30138;20.964;105.830;2023-02-10T18:05:13;65.57;;;41.67;;
44434;SDS011;30138;20.964;105.830;2023-02-10T18:10:21;66.32;;;43.38;;
44434;SDS011;30138;20.964;105.830;2023-02-10T18:15:29;66.45;;;42.85;;
44434;SDS011;30138;20.964;105.830;2023-02-10T18:20:37;68.68;;;44.53;;
44434;SDS011;30138;20.964;105.830;2023-02-10T18:25:46;65.88;;;42.97;;
44434;SDS011;30138;20.964;105.830;2023-02-10T18:30:58;65.03;;;41.97;;
44434;SDS011;30138;20.964;105.830;2023-02-10T18:36:05;68.78;;;43.90;;
44434;SDS011;30138;20.964;105.830;2023-02-10T18:41:13;65.18;;;42.58;;
44434;SDS011;30138;20.964;105.830;2023-02-10T18:46:21;68.65;;;43.05;;
44434;SDS011;30138;20.964;105.830;2023-02-10T18:51:27;67.97;;;42.85;;
44434;SDS011;30138;20.964;105.830;2023-02-10T18:56:34;66.30;;;42.70;;
44434;SDS011;30138;20.964;105.830;2023-02-10T19:01:42;64.65;;;42.95;;
44434;SDS011;30138;20.964;105.830;2023-02-10T19:06:49;64.20;;;41.97;;
44434;SDS011;30138;20.964;105.830;2023-02-10T19:11:56;68.07;;;43.65;;
44434;SDS011;30138;20.964;105.830;2023-02-10T19:17:04;64.55;;;41.60;;
44434;SDS011;30138;20.964;105.830;2023-02-10T19:22:10;62.30;;;41.03;;
44434;SDS011;30138;20.964;105.830;2023-02-10T19:27:16;67.50;;;42.78;;
44434;SDS011;30138;20.964;105.830;2023-02-10T19:32:24;63.30;;;41.13;;
44434;SDS011;30138;20.964;105.830;2023-02-10T19:37:31;63.30;;;40.65;;
44434;SDS011;30138;20.964;105.830;2023-02-10T19:42:39;62.97;;;40.22;;
44434;SDS011;30138;20.964;105.830;2023-02-10T19:47:48;61.00;;;40.47;;
44434;SDS011;30138;20.964;105.830;2023-02-10T19:52:56;62.60;;;40.15;;
44434;SDS011;30138;20.964;105.830;2023-02-10T19:58:02;63.28;;;40.95;;
44434;SDS011;30138;20.964;105.830;2023-02-10T20:03:10;63.67;;;40.63;;
44434;SDS011;30138;20.964;105.830;2023-02-10T20:08:19;62.63;;;40.15;;
44434;SDS011;30138;20.964;105.830;2023-02-10T20:13:25;62.70;;;38.90;;
44434;SDS011;30138;20.964;105.830;2023-02-10T20:18:33;60.78;;;38.72;;
44434;SDS011;30138;20.964;105.830;2023-02-10T20:23:41;61.80;;;39.95;;
44434;SDS011;30138;20.964;105.830;2023-02-10T20:28:47;59.75;;;38.85;;
44434;SDS011;30138;20.964;105.830;2023-02-10T20:33:58;59.80;;;38.08;;
44434;SDS011;30138;20.964;105.830;2023-02-10T20:39:05;59.70;;;39.57;;
44434;SDS011;30138;20.964;105.830;2023-02-10T20:44:13;58.55;;;37.75;;
44434;SDS011;30138;20.964;105.830;2023-02-10T20:49:21;55.50;;;36.78;;
44434;SDS011;30138;20.964;105.830;2023-02-10T20:54:28;54.40;;;36.30;;
44434;SDS011;30138;20.964;105.830;2023-02-10T20:59:34;55.72;;;36.90;;
44434;SDS011;30138;20.964;105.830;2023-02-10T21:04:43;56.90;;;36.60;;
44434;SDS011;30138;20.964;105.830;2023-02-10T21:09:53;59.25;;;37.28;;
44434;SDS011;30138;20.964;105.830;2023-02-10T21:14:59;55.00;;;37.08;;
44434;SDS011;30138;20.964;105.830;2023-02-10T21:20:08;54.55;;;36.85;;
44434;SDS011;30138;20.964;105.830;2023-02-10T21:25:14;58.67;;;39.35;;
44434;SDS011;30138;20.964;105.830;2023-02-10T21:30:21;55.42;;;36.25;;
44434;SDS011;30138;20.964;105.830;2023-02-10T21:35:29;59.33;;;38.40;;
44434;SDS011;30138;20.964;105.830;2023-02-10T21:40:36;58.15;;;38.30;;
44434;SDS011;30138;20.964;105.830;2023-02-10T21:45:46;58.03;;;37.55;;
44434;SDS011;30138;20.964;105.830;2023-02-10T21:50:55;55.03;;;36.47;;
44434;SDS011;30138;20.964;105.830;2023-02-10T21:56:03;58.05;;;36.70;;
44434;SDS011;30138;20.964;105.830;2023-02-10T22:01:09;59.85;;;37.80;;
44434;SDS011;30138;20.964;105.830;2023-02-10T22:06:19;59.33;;;37.58;;
44434;SDS011;30138;20.964;105.830;2023-02-10T22:11:25;61.50;;;38.55;;
44434;SDS011;30138;20.964;105.830;2023-02-10T22:16:33;56.60;;;36.85;;
44434;SDS011;30138;20.964;105.830;2023-02-10T22:21:41;63.20;;;39.33;;
44434;SDS011;30138;20.964;105.830;2023-02-10T22:26:47;59.28;;;37.10;;
44434;SDS011;30138;20.964;105.830;2023-02-10T22:31:53;58.03;;;36.92;;
44434;SDS011;30138;20.964;105.830;2023-02-10T22:37:01;59.72;;;37.72;;
44434;SDS011;30138;20.964;105.830;2023-02-10T22:42:07;59.65;;;37.47;;
44434;SDS011;30138;20.964;105.830;2023-02-10T22:47:14;59.17;;;37.13;;
44434;SDS011;30138;20.964;105.830;2023-02-10T22:52:22;55.85;;;36.70;;
44434;SDS011;30138;20.964;105.830;2023-02-10T22:57:28;61.55;;;38.55;;
44434;SDS011;30138;20.964;105.830;2023-02-10T23:02:35;62.17;;;38.45;;
44434;SDS011;30138;20.964;105.830;2023-02-10T23:07:45;61.40;;;38.35;;
44434;SDS011;30138;20.964;105.830;2023-02-10T23:12:52;60.50;;;36.75;;
44434;SDS011;30138;20.964;105.830;2023-02-10T23:17:59;60.90;;;38.67;;
44434;SDS011;30138;20.964;105.830;2023-02-10T23:23:07;60.20;;;37.85;;
44434;SDS011;30138;20.964;105.830;2023-02-10T23:28:14;59.58;;;38.45;;
44434;SDS011;30138;20.964;105.830;2023-02-10T23:33:22;56.40;;;36.80;;
44434;SDS011;30138;20.964;105.830;2023-02-10T23:38:30;61.03;;;37.70;;
44434;SDS011;30138;20.964;105.830;2023-02-10T23:43:36;59.83;;;36.38;;
44434;SDS011;30138;20.964;105.830;2023-02-10T23:48:44;60.55;;;36.85;;
44434;SDS011;30138;20.964;105.830;2023-02-10T23:53:52;58.97;;;37.92;;
44434;SDS011;30138;20.964;105.830;2023-02-10T23:58:58;62.08;;;37.30;;
